Time;durP1;ratioP1;P1;durP2;ratioP2;P2;SDS_P1;SDS_P2;PMS_P1;PMS_P2;Temp;Humidity;BMP_temperature;BMP_pressure;BME280_temperature;BME280_humidity;BME280_pressure;Samples;Min_cycle;Max_cycle;Signal;HPM_P1;HPM_P2
2023/01/18 00:00:07;;;;;;;1.80;1.70;;;;;;;14.41;61.38;93192.28;5096099;28;20848;-83
2023/01/18 00:02:35;;;;;;;3.00;1.60;;;;;;;14.33;60.95;93217.00;5059275;28;20479;-83
2023/01/18 00:25:59;;;;;;;1.77;1.67;;;;;;;14.90;58.96;93244.94;5051615;27;1321171;-79
2023/01/18 00:28:26;;;;;;;3.67;2.00;;;;;;;14.82;59.26;93216.06;5075674;28;20202;-78
2023/01/18 00:30:53;;;;;;;3.60;1.80;;;;;;;14.72;59.84;93200.56;5078336;28;20450;-77
2023/01/18 00:33:20;;;;;;;3.00;1.90;;;;;;;14.74;60.35;93216.22;5080964;28;20991;-79
2023/01/18 00:35:55;;;;;;;3.97;2.10;;;;;;;14.74;59.91;93210.94;5090160;28;20494;-76
2023/01/18 00:38:22;;;;;;;2.70;2.20;;;;;;;14.67;60.04;93218.03;5090539;28;20474;-77
2023/01/18 00:40:49;;;;;;;2.77;1.50;;;;;;;14.63;60.28;93199.13;5091131;28;20444;-78
2023/01/18 00:46:01;;;;;;;5.40;3.20;;;;;;;14.63;60.56;93196.47;5090142;28;20423;-78
2023/01/18 00:48:28;;;;;;;2.10;1.97;;;;;;;14.62;60.23;93181.66;5038802;28;20436;-79
2023/01/18 00:50:55;;;;;;;1.70;1.60;;;;;;;14.64;60.73;93211.31;5038064;28;20435;-78
2023/01/18 00:53:21;;;;;;;4.23;1.97;;;;;;;14.54;60.54;93209.03;5090485;28;20810;-79
2023/01/18 00:55:48;;;;;;;1.83;1.50;;;;;;;14.59;60.27;93199.72;5089597;28;20562;-78
2023/01/18 00:58:16;;;;;;;1.93;1.60;;;;;;;14.66;59.83;93203.19;5090864;28;20443;-78
2023/01/18 01:00:43;;;;;;;2.37;1.67;;;;;;;14.70;59.60;93215.81;5090541;28;20443;-78
2023/01/18 01:03:13;;;;;;;2.70;1.57;;;;;;;14.76;59.18;93193.09;5090168;28;20498;-78
2023/01/18 01:08:24;;;;;;;2.53;1.40;;;;;;;14.65;59.41;93207.66;5089443;28;20423;-79
2023/01/18 01:10:53;;;;;;;1.30;1.10;;;;;;;14.76;58.82;93195.75;5089850;28;20455;-79
2023/01/18 01:27:07;;;;;;;9.53;3.40;;;;;;;14.78;59.88;93199.81;5075285;28;20467;-78
2023/01/18 01:29:35;;;;;;;2.53;2.33;;;;;;;14.70;60.08;93192.03;5075753;28;20441;-79
2023/01/18 01:32:02;;;;;;;8.20;1.60;;;;;;;14.63;60.18;93193.03;5075530;28;20440;-79
2023/01/18 01:34:29;;;;;;;2.63;1.70;;;;;;;14.64;59.82;93190.19;5075520;28;20575;-79
2023/01/18 01:36:56;;;;;;;2.43;2.23;;;;;;;14.63;60.66;93196.47;5075568;28;20451;-79
2023/01/18 01:39:23;;;;;;;7.03;2.30;;;;;;;14.56;60.86;93212.28;5075702;28;20447;-79
2023/01/18 01:41:50;;;;;;;3.00;2.20;;;;;;;14.52;60.95;93199.69;5075631;28;20503;-78
2023/01/18 01:44:53;;;;;;;2.43;1.93;;;;;;;14.58;61.16;93220.03;5075495;28;20489;-78
2023/01/18 01:47:34;;;;;;;2.03;1.93;;;;;;;14.48;60.77;93201.91;5075722;28;20448;-78
2023/01/18 01:50:07;;;;;;;1.77;1.30;;;;;;;14.40;61.72;93182.72;5075163;28;20447;-79
2023/01/18 01:52:37;;;;;;;2.67;2.10;;;;;;;14.38;61.65;93203.22;5075058;28;20459;-78
2023/01/18 01:55:09;;;;;;;2.60;1.37;;;;;;;14.44;61.99;93184.00;5075281;28;20483;-78
2023/01/18 01:57:39;;;;;;;4.33;2.00;;;;;;;14.42;62.26;93194.72;5075297;28;20502;-78
2023/01/18 02:00:09;;;;;;;2.87;1.53;;;;;;;14.45;62.13;93201.47;5023730;28;20433;-78
2023/01/18 02:02:38;;;;;;;1.87;1.70;;;;;;;14.40;62.14;93202.00;5023045;28;20476;-78
2023/01/18 02:05:07;;;;;;;3.73;1.77;;;;;;;14.37;62.05;93205.03;5074772;28;20452;-78
2023/01/18 02:07:34;;;;;;;3.30;1.83;;;;;;;14.35;62.37;93224.72;5075193;28;20444;-78
2023/01/18 02:10:03;;;;;;;2.23;1.87;;;;;;;14.42;61.88;93236.13;5074670;28;20433;-78
2023/01/18 02:12:30;;;;;;;1.50;1.40;;;;;;;14.45;61.99;93196.19;5074886;28;20448;-79
2023/01/18 02:14:58;;;;;;;1.93;1.83;;;;;;;14.36;62.13;93174.38;5074548;28;20882;-78
2023/01/18 02:17:45;;;;;;;3.17;1.80;;;;;;;14.37;62.00;93198.94;5074714;28;20602;-78
2023/01/18 02:21:01;;;;;;;1.77;1.53;;;;;;;14.46;61.58;93203.13;5074857;28;20999;-78
2023/01/18 02:24:04;;;;;;;11.30;1.93;;;;;;;14.45;61.58;93183.78;5074394;28;20456;-79
2023/01/18 02:27:00;;;;;;;3.17;1.50;;;;;;;14.46;61.42;93193.38;5054616;28;20452;-79
2023/01/18 02:29:42;;;;;;;3.60;1.60;;;;;;;14.43;61.52;93179.72;5054368;28;20447;-79
2023/01/18 02:32:20;;;;;;;4.63;2.70;;;;;;;14.46;61.81;93187.28;5054463;28;20449;-78
2023/01/18 02:34:49;;;;;;;4.60;1.97;;;;;;;14.51;61.50;93216.53;5054174;28;20546;-78
2023/01/18 02:37:25;;;;;;;1.87;1.63;;;;;;;14.57;61.48;93215.75;5053318;28;21023;-78
2023/01/18 02:40:07;;;;;;;3.50;3.20;;;;;;;14.55;61.02;93208.03;5054364;28;20534;-79
2023/01/18 02:48:15;;;;;;;2.67;1.93;;;;;;;14.69;59.91;93214.16;5054025;28;20433;-78
2023/01/18 02:50:42;;;;;;;2.87;1.77;;;;;;;14.77;59.76;93218.50;5054398;28;20843;-79
2023/01/18 02:53:12;;;;;;;4.47;1.80;;;;;;;14.79;59.97;93211.19;5002484;28;20451;-78
2023/01/18 02:55:46;;;;;;;2.90;2.10;;;;;;;14.81;59.48;93209.16;5053700;28;20527;-78
2023/01/18 02:58:20;;;;;;;3.70;1.90;;;;;;;14.74;59.92;93222.31;5053817;28;20452;-78
2023/01/18 03:00:53;;;;;;;3.87;1.90;;;;;;;14.71;59.40;93225.34;5053624;28;20447;-77
2023/01/18 03:03:21;;;;;;;10.40;1.67;;;;;;;14.69;59.84;93210.72;5053886;28;20458;-78
2023/01/18 03:05:50;;;;;;;4.40;2.00;;;;;;;14.77;59.37;93215.84;5002148;28;20449;-78
2023/01/18 03:08:22;;;;;;;3.57;1.33;;;;;;;14.80;59.01;93187.22;5053704;28;20454;-79
2023/01/18 03:10:57;;;;;;;7.53;1.90;;;;;;;14.84;58.94;93204.31;5053597;28;20853;-78
2023/01/18 03:13:31;;;;;;;2.90;1.90;;;;;;;14.90;58.68;93201.88;5053488;28;20532;-78
2023/01/18 03:16:06;;;;;;;5.13;2.20;;;;;;;14.83;58.76;93212.41;5053391;28;21060;-78
2023/01/18 03:18:58;;;;;;;2.90;1.30;;;;;;;14.69;59.31;93208.09;5053352;28;20445;-79
2023/01/18 03:21:28;;;;;;;3.37;2.10;;;;;;;14.70;59.87;93181.47;5053543;28;20443;-79
2023/01/18 03:23:53;;;;;;;2.67;1.80;;;;;;;14.79;59.15;93163.66;5054951;28;20452;-79
2023/01/18 03:26:22;;;;;;;9.07;2.10;;;;;;;14.56;60.05;93183.25;5073464;28;20847;-78
2023/01/18 03:34:33;;;;;;;2.97;1.50;;;;;;;14.71;59.17;93188.38;5073181;28;20570;-78
2023/01/18 03:37:03;;;;;;;9.20;3.10;;;;;;;14.75;59.87;93179.09;5073038;28;20451;-78
2023/01/18 03:39:34;;;;;;;2.90;1.70;;;;;;;14.74;59.83;93166.88;5072872;28;20502;-79
2023/01/18 03:42:06;;;;;;;4.13;3.23;;;;;;;14.71;60.01;93184.94;5072992;28;20448;-78
2023/01/18 03:44:36;;;;;;;8.63;2.50;;;;;;;14.66;59.90;93187.34;5073046;28;20443;-78
2023/01/18 03:47:05;;;;;;;5.10;2.37;;;;;;;14.74;60.27;93213.59;5073143;28;20445;-78
2023/01/18 03:49:34;;;;;;;4.33;2.13;;;;;;;14.66;59.47;93224.31;5073001;28;20514;-78
2023/01/18 03:52:15;;;;;;;5.10;1.83;;;;;;;14.66;59.55;93190.81;5073124;28;20507;-78
2023/01/18 03:54:51;;;;;;;2.23;1.70;;;;;;;14.69;58.61;93184.31;5072811;28;20480;-79
2023/01/18 03:57:24;;;;;;;2.67;1.60;;;;;;;14.63;59.02;93244.00;5023419;28;20456;-78
2023/01/18 03:59:51;;;;;;;5.53;1.90;;;;;;;14.68;59.28;93187.97;5072768;28;20509;-78
2023/01/18 04:02:21;;;;;;;5.23;3.23;;;;;;;14.60;58.87;93172.31;5072874;28;20445;-78
2023/01/18 04:04:48;;;;;;;5.90;2.10;;;;;;;14.60;59.43;93196.06;5020854;28;20524;-78
2023/01/18 04:07:14;;;;;;;3.00;2.10;;;;;;;14.59;58.90;93191.78;5072679;28;20444;-78
2023/01/18 04:09:41;;;;;;;1.73;1.43;;;;;;;14.61;57.94;93190.59;5072929;28;20860;-78
2023/01/18 04:12:08;;;;;;;4.40;2.03;;;;;;;14.58;57.82;93198.91;5073004;28;20437;-78
2023/01/18 04:14:35;;;;;;;4.77;1.60;;;;;;;14.66;57.98;93201.38;5066642;28;20482;-78
2023/01/18 04:17:01;;;;;;;1.80;1.30;;;;;;;14.72;57.54;93199.75;5072801;28;20444;-78
2023/01/18 04:19:29;;;;;;;6.87;1.70;;;;;;;14.78;57.24;93197.19;5072731;28;20494;-78
2023/01/18 04:21:56;;;;;;;3.77;1.90;;;;;;;14.91;56.80;93200.88;5072891;28;20484;-78
2023/01/18 04:24:23;;;;;;;8.33;1.77;;;;;;;14.96;57.35;93190.53;5072553;28;20488;-78
2023/01/18 04:26:50;;;;;;;5.40;1.70;;;;;;;14.92;57.36;93189.28;5021008;28;20442;-78
2023/01/18 04:29:17;;;;;;;4.03;1.87;;;;;;;14.86;57.72;93170.59;5072743;28;20935;-78
2023/01/18 04:31:43;;;;;;;4.43;1.47;;;;;;;14.75;56.75;93189.66;5073069;28;20849;-78
2023/01/18 04:34:10;;;;;;;2.73;1.70;;;;;;;14.72;57.25;93194.47;5072429;28;20974;-78
2023/01/18 04:36:38;;;;;;;5.77;1.53;;;;;;;14.73;56.77;93170.53;5072377;28;20542;-78
2023/01/18 04:39:05;;;;;;;2.20;1.60;;;;;;;14.70;56.97;93180.66;5021276;28;20457;-78
2023/01/18 04:41:32;;;;;;;12.33;1.90;;;;;;;14.70;57.38;93185.94;5072304;28;20456;-79
2023/01/18 04:43:59;;;;;;;3.20;1.47;;;;;;;14.71;57.13;93172.53;5072917;28;20452;-78
2023/01/18 04:46:26;;;;;;;7.90;2.10;;;;;;;14.87;56.29;93188.06;5072436;28;20489;-78
2023/01/18 04:48:52;;;;;;;7.57;1.97;;;;;;;14.97;56.62;93176.28;5072566;28;20449;-78
2023/01/18 04:51:22;;;;;;;4.63;1.40;;;;;;;14.97;56.48;93155.97;5072446;28;20445;-78
2023/01/18 04:53:50;;;;;;;3.90;2.90;;;;;;;14.90;57.12;93112.91;5072475;28;20455;-77
2023/01/18 04:56:18;;;;;;;3.10;2.27;;;;;;;14.83;57.20;93155.13;5072738;28;20476;-79
2023/01/18 04:58:45;;;;;;;3.10;1.90;;;;;;;14.75;58.11;93155.31;5072579;28;20453;-79
2023/01/18 05:01:12;;;;;;;3.80;1.70;;;;;;;14.71;57.73;93151.44;5075096;28;20440;-80
2023/01/18 05:03:40;;;;;;;4.83;1.97;;;;;;;14.72;57.69;93163.63;5075952;28;20443;-79
2023/01/18 05:06:08;;;;;;;5.03;2.20;;;;;;;14.76;57.54;93179.91;5076408;28;20445;-79
2023/01/18 05:08:35;;;;;;;1.87;1.73;;;;;;;14.77;57.17;93182.34;5076267;28;20452;-79
2023/01/18 05:11:04;;;;;;;2.17;1.93;;;;;;;14.84;57.05;93222.78;5076307;28;20497;-79
2023/01/18 05:13:31;;;;;;;4.53;1.67;;;;;;;14.85;57.65;93163.69;5075758;28;20449;-79
2023/01/18 05:16:00;;;;;;;8.00;2.90;;;;;;;14.85;57.85;93197.19;5076064;28;20487;-78
2023/01/18 05:18:28;;;;;;;4.97;1.80;;;;;;;14.86;57.68;93188.25;5075587;28;20927;-79
2023/01/18 05:20:54;;;;;;;5.53;1.77;;;;;;;14.89;57.42;93169.38;5075676;28;20997;-79
2023/01/18 05:23:22;;;;;;;10.60;2.10;;;;;;;14.92;57.30;93161.06;5076009;28;20447;-79
2023/01/18 05:25:53;;;;;;;3.50;2.10;;;;;;;14.77;57.98;93166.50;5076288;28;20885;-79
2023/01/18 05:28:22;;;;;;;3.43;1.60;;;;;;;14.72;58.12;93149.59;5076474;28;20536;-78
2023/01/18 05:30:50;;;;;;;2.63;1.87;;;;;;;14.72;57.97;93158.34;5075550;28;20954;-79
2023/01/18 05:33:17;;;;;;;4.57;2.00;;;;;;;14.81;57.94;93169.56;5075977;28;20455;-78
2023/01/18 05:35:49;;;;;;;5.70;1.90;;;;;;;14.80;57.65;93171.38;5078685;28;20986;-78
2023/01/18 05:38:16;;;;;;;9.60;2.20;;;;;;;14.87;57.74;93193.34;5024896;28;20543;-78
2023/01/18 05:40:44;;;;;;;3.53;1.63;;;;;;;14.81;57.48;93201.25;5075206;28;20473;-78
2023/01/18 05:43:11;;;;;;;3.87;1.93;;;;;;;14.88;57.45;93210.00;5075482;28;20531;-78
2023/01/18 05:45:41;;;;;;;2.83;2.17;;;;;;;14.81;57.94;93231.09;5040089;28;20441;-78
2023/01/18 05:48:08;;;;;;;4.63;1.80;;;;;;;14.85;57.89;93264.03;5075104;28;20859;-79
2023/01/18 05:50:35;;;;;;;2.77;1.70;;;;;;;14.84;58.08;93204.31;5075038;28;20445;-78
2023/01/18 05:53:02;;;;;;;5.30;2.90;;;;;;;14.77;58.19;93203.47;5075435;28;20449;-79
2023/01/18 05:55:28;;;;;;;5.43;1.97;;;;;;;14.83;57.87;93207.97;5074915;28;21064;-78
2023/01/18 05:57:55;;;;;;;8.83;3.50;;;;;;;14.85;57.92;93216.50;5075039;28;20446;-78
2023/01/18 06:00:22;;;;;;;5.07;1.60;;;;;;;14.85;57.58;93208.56;5075036;28;20441;-78
2023/01/18 06:02:52;;;;;;;5.67;1.80;;;;;;;14.92;58.04;93213.06;5074978;28;20445;-78
2023/01/18 06:05:20;;;;;;;4.97;1.37;;;;;;;14.91;58.12;93220.16;5074854;28;20451;-79
2023/01/18 06:07:47;;;;;;;6.60;1.90;;;;;;;14.88;57.86;93212.63;5075045;28;20871;-79
2023/01/18 06:10:15;;;;;;;2.53;1.60;;;;;;;14.91;58.50;93209.59;5023214;28;20469;-79
2023/01/18 06:12:43;;;;;;;4.40;1.60;;;;;;;14.88;57.88;93200.25;5074651;28;20974;-78
2023/01/18 06:15:11;;;;;;;8.20;1.70;;;;;;;14.88;58.34;93202.88;5022621;28;20485;-78
2023/01/18 06:17:38;;;;;;;10.37;2.17;;;;;;;14.82;58.13;93216.88;5074936;28;20490;-78
2023/01/18 06:20:08;;;;;;;9.03;2.17;;;;;;;14.77;58.37;93203.47;5074511;28;20495;-79
2023/01/18 06:22:35;;;;;;;3.23;1.77;;;;;;;14.82;58.32;93208.97;4974991;28;20841;-78
2023/01/18 06:25:02;;;;;;;6.73;3.30;;;;;;;14.86;58.72;93212.84;5074705;28;20475;-78
2023/01/18 06:27:28;;;;;;;7.53;3.07;;;;;;;14.94;58.31;93218.94;5074339;28;20923;-78
2023/01/18 06:29:55;;;;;;;6.80;2.67;;;;;;;14.93;58.49;93222.63;5074295;28;20445;-79
2023/01/18 06:32:22;;;;;;;9.90;3.70;;;;;;;14.92;58.63;93213.88;5074548;28;20540;-78
2023/01/18 06:34:49;;;;;;;8.73;2.70;;;;;;;14.92;58.38;93199.84;5074175;28;20521;-79
2023/01/18 06:37:17;;;;;;;13.10;2.70;;;;;;;14.98;58.56;93225.47;5074106;28;20520;-79
2023/01/18 06:39:44;;;;;;;7.53;2.53;;;;;;;15.00;58.92;93210.22;5074008;28;20441;-79
2023/01/18 06:42:11;;;;;;;8.60;2.80;;;;;;;15.02;58.75;93208.22;5074269;28;20441;-79
2023/01/18 06:44:38;;;;;;;7.53;3.80;;;;;;;15.08;58.88;93208.25;5073998;28;20445;-79
2023/01/18 06:47:05;;;;;;;13.40;4.90;;;;;;;15.13;58.63;93199.72;5073948;28;20455;-79
2023/01/18 06:49:32;;;;;;;17.00;7.13;;;;;;;15.20;58.63;93195.28;5074160;28;20445;-78
2023/01/18 06:51:58;;;;;;;11.27;4.17;;;;;;;15.22;58.01;93200.34;5073900;28;20452;-79
2023/01/18 06:54:27;;;;;;;9.73;4.07;;;;;;;15.22;58.08;93164.16;5022406;28;20442;-79
2023/01/18 06:56:54;;;;;;;17.67;5.93;;;;;;;15.22;58.07;93180.03;5022563;28;20880;-79
2023/01/18 06:59:21;;;;;;;13.33;5.33;;;;;;;15.26;57.94;93205.03;5022250;28;20495;-79
2023/01/18 07:01:48;;;;;;;10.33;4.23;;;;;;;15.27;57.99;93192.63;5073777;28;20453;-79
2023/01/18 07:04:14;;;;;;;10.77;3.20;;;;;;;15.30;58.00;93181.66;5073597;28;20440;-79
2023/01/18 07:06:41;;;;;;;9.80;6.70;;;;;;;15.37;58.02;93171.94;5073683;28;20495;-79
2023/01/18 07:09:08;;;;;;;3.30;2.73;;;;;;;15.43;57.48;93155.25;5073669;28;20502;-79
2023/01/18 07:11:36;;;;;;;10.00;2.63;;;;;;;15.40;57.39;93140.63;5073741;28;20462;-79
2023/01/18 07:14:03;;;;;;;4.03;1.60;;;;;;;15.50;57.57;93143.66;5073473;28;20998;-79
2023/01/18 07:16:31;;;;;;;11.67;2.50;;;;;;;15.52;57.42;93155.88;5073393;28;20483;-79
2023/01/18 07:18:59;;;;;;;7.10;2.40;;;;;;;15.58;57.82;93139.19;5038261;28;20435;-78
2023/01/18 07:21:28;;;;;;;4.67;1.90;;;;;;;15.60;57.34;93161.81;5073269;28;20461;-79
2023/01/18 07:23:55;;;;;;;5.03;2.10;;;;;;;15.61;57.15;93141.47;5072988;28;20456;-79
2023/01/18 07:26:22;;;;;;;16.33;2.00;;;;;;;15.64;57.03;93131.31;5073207;28;20943;-78
2023/01/18 07:28:53;;;;;;;4.83;1.90;;;;;;;15.70;56.40;93153.47;5073229;28;20458;-78
2023/01/18 07:31:22;;;;;;;4.00;1.80;;;;;;;15.75;56.34;93132.53;5073233;28;20456;-79
2023/01/18 07:33:49;;;;;;;2.83;1.87;;;;;;;15.76;55.78;93107.69;5073145;28;20449;-79
2023/01/18 07:36:16;;;;;;;3.20;1.97;;;;;;;15.77;56.23;93149.81;5073259;28;20483;-79
2023/01/18 07:38:43;;;;;;;13.53;2.00;;;;;;;15.76;55.92;93147.38;5073414;28;20495;-78
2023/01/18 07:41:13;;;;;;;3.70;1.60;;;;;;;15.73;56.64;93151.25;5072967;28;20451;-78
2023/01/18 07:43:41;;;;;;;10.80;2.07;;;;;;;15.73;56.84;93151.25;5073309;28;20458;-79
2023/01/18 07:46:17;;;;;;;6.03;1.87;;;;;;;15.75;56.52;93165.06;5073082;28;20480;-79
2023/01/18 07:48:44;;;;;;;14.23;2.13;;;;;;;15.80;56.35;93151.22;5073351;28;20448;-78
2023/01/18 07:51:11;;;;;;;10.63;2.13;;;;;;;15.84;56.48;93176.25;5072915;28;20512;-78
2023/01/18 07:53:38;;;;;;;11.13;2.00;;;;;;;15.87;56.79;93188.25;5021278;28;20496;-79
2023/01/18 07:56:08;;;;;;;7.40;2.13;;;;;;;15.91;56.27;93177.09;5073201;28;20598;-79
2023/01/18 07:58:35;;;;;;;4.70;1.90;;;;;;;15.92;56.36;93197.22;5073160;28;20453;-78
2023/01/18 08:01:03;;;;;;;8.60;1.70;;;;;;;15.96;55.99;93203.75;5072797;28;20534;-79
2023/01/18 08:03:31;;;;;;;13.70;2.20;;;;;;;15.98;56.30;93222.06;5072709;28;20450;-79
2023/01/18 08:05:59;;;;;;;12.03;2.10;;;;;;;16.01;56.16;93240.16;5073014;28;20503;-79
2023/01/18 08:08:27;;;;;;;6.47;2.00;;;;;;;16.07;55.68;93253.38;5072710;28;21008;-79
2023/01/18 08:10:55;;;;;;;3.97;1.80;;;;;;;16.15;54.93;93227.72;5022187;28;20490;-79
2023/01/18 08:13:21;;;;;;;12.57;2.70;;;;;;;16.17;55.65;93268.03;5021444;28;20447;-79
2023/01/18 08:15:48;;;;;;;3.70;1.97;;;;;;;16.19;54.94;93252.75;5021249;28;20491;-79
2023/01/18 08:18:15;;;;;;;3.10;1.87;;;;;;;16.18;55.48;93261.72;5072627;28;20941;-80
2023/01/18 08:20:45;;;;;;;14.83;2.83;;;;;;;16.18;54.68;93282.88;5072484;28;20453;-79
2023/01/18 08:23:12;;;;;;;13.13;2.10;;;;;;;16.24;54.71;93274.16;5020984;28;20445;-79
2023/01/18 08:25:39;;;;;;;9.23;1.70;;;;;;;16.28;55.27;93317.72;5072802;28;20478;-80
2023/01/18 08:28:06;;;;;;;9.20;2.10;;;;;;;16.31;54.56;93291.66;5072471;28;20446;-79
2023/01/18 08:30:35;;;;;;;6.43;1.97;;;;;;;16.39;54.87;93319.75;5021037;28;20437;-80
2023/01/18 08:33:03;;;;;;;7.13;2.50;;;;;;;16.44;54.88;93317.31;5072671;28;20795;-79
2023/01/18 08:35:32;;;;;;;8.93;2.67;;;;;;;16.47;54.15;93295.72;5073146;28;20510;-80
2023/01/18 08:38:01;;;;;;;3.97;2.23;;;;;;;16.51;53.98;93302.25;5076509;28;20946;-79
2023/01/18 08:40:29;;;;;;;5.33;1.90;;;;;;;16.56;54.30;93298.97;5076655;28;20451;-79
2023/01/18 08:42:57;;;;;;;3.97;1.50;;;;;;;16.52;54.58;93287.19;5076421;28;20449;-79
2023/01/18 08:45:24;;;;;;;4.33;2.70;;;;;;;16.52;54.59;93298.59;5076411;28;20538;-80
2023/01/18 08:47:56;;;;;;;4.17;2.10;;;;;;;16.52;54.70;93303.06;5076582;28;20440;-80
2023/01/18 08:50:23;;;;;;;5.27;2.10;;;;;;;16.53;54.61;93305.50;5076231;28;20554;-79
2023/01/18 08:52:51;;;;;;;17.37;2.37;;;;;;;16.54;54.30;93288.59;5076375;28;20444;-79
2023/01/18 08:55:20;;;;;;;3.83;1.90;;;;;;;16.58;54.41;93316.28;5076098;28;20440;-79
2023/01/18 08:57:47;;;;;;;4.30;1.87;;;;;;;16.58;53.92;93296.94;5076196;28;20571;-79
2023/01/18 09:00:15;;;;;;;7.53;2.03;;;;;;;16.57;53.98;93279.44;5076060;28;20871;-80
2023/01/18 09:02:42;;;;;;;3.63;1.60;;;;;;;16.62;54.12;93300.81;5076006;28;20509;-80
2023/01/18 09:05:09;;;;;;;6.33;2.00;;;;;;;16.67;54.32;93279.84;5076140;28;20437;-79
2023/01/18 09:07:36;;;;;;;10.17;2.27;;;;;;;16.64;54.12;93290.81;5076271;28;20459;-79
2023/01/18 09:10:04;;;;;;;7.90;2.00;;;;;;;16.67;54.40;93290.44;5076077;28;20456;-79
2023/01/18 09:12:33;;;;;;;5.47;1.50;;;;;;;16.69;53.82;93299.00;5075853;28;20870;-79
2023/01/18 09:15:00;;;;;;;5.53;1.97;;;;;;;16.72;53.96;93322.41;5075821;28;20967;-80
2023/01/18 09:17:27;;;;;;;8.73;2.23;;;;;;;16.75;53.10;93315.88;5075506;28;20843;-79
2023/01/18 09:19:54;;;;;;;4.30;1.87;;;;;;;16.77;53.57;93337.69;5075926;28;20444;-79
2023/01/18 09:22:22;;;;;;;5.23;2.43;;;;;;;16.78;53.59;93336.69;5023878;28;20924;-79
2023/01/18 09:24:49;;;;;;;4.37;1.80;;;;;;;16.88;53.52;93326.47;5075542;28;20474;-80
2023/01/18 09:27:17;;;;;;;12.17;2.10;;;;;;;16.90;53.29;93365.00;5075649;28;20589;-80
2023/01/18 09:29:45;;;;;;;2.70;1.80;;;;;;;16.99;53.34;93373.53;5075542;28;20436;-80
2023/01/18 09:32:12;;;;;;;4.43;1.83;;;;;;;16.99;52.89;93357.63;5075481;28;20528;-79
2023/01/18 09:34:39;;;;;;;7.47;2.00;;;;;;;17.03;52.85;93362.31;5075410;28;20444;-79
2023/01/18 09:37:06;;;;;;;9.77;2.80;;;;;;;17.02;52.50;93362.53;5075534;28;20497;-79
2023/01/18 09:39:33;;;;;;;9.00;2.53;;;;;;;16.99;52.37;93378.84;5075347;28;20850;-79
2023/01/18 09:42:03;;;;;;;9.87;1.87;;;;;;;17.05;52.36;93354.16;5075687;28;20447;-79
2023/01/18 09:44:33;;;;;;;7.80;2.17;;;;;;;17.13;52.49;93348.66;5023518;28;20440;-79
2023/01/18 09:47:06;;;;;;;3.27;1.80;;;;;;;17.20;52.10;93360.03;5074806;28;20466;-78
2023/01/18 09:49:37;;;;;;;4.63;1.63;;;;;;;17.27;51.95;93360.03;5075502;28;20449;-79
2023/01/18 09:52:20;;;;;;;4.70;1.60;;;;;;;17.33;51.23;93352.03;5075428;28;20479;-79
2023/01/18 09:54:54;;;;;;;3.53;1.73;;;;;;;17.41;51.38;93355.50;5075165;28;20936;-79
2023/01/18 09:57:39;;;;;;;6.33;1.90;;;;;;;17.41;51.02;93356.31;5075810;28;20508;-80
2023/01/18 10:00:18;;;;;;;3.40;1.87;;;;;;;17.43;51.04;93337.56;5076381;28;20449;-78
2023/01/18 10:02:50;;;;;;;4.10;2.17;;;;;;;17.42;51.61;93381.00;5075214;28;20860;-79
2023/01/18 10:05:21;;;;;;;3.10;1.83;;;;;;;17.38;51.27;93371.84;5074994;28;20447;-79
2023/01/18 10:08:01;;;;;;;14.57;4.27;;;;;;;17.38;51.08;93362.03;5074967;28;20450;-78
2023/01/18 10:10:31;;;;;;;12.30;2.53;;;;;;;17.40;50.92;93353.88;5074693;28;20506;-79
2023/01/18 10:13:17;;;;;;;5.53;1.97;;;;;;;17.46;50.76;93353.03;5074746;28;20501;-79
2023/01/18 10:15:45;;;;;;;5.77;2.63;;;;;;;17.52;50.85;93358.31;4993178;28;20453;-79
2023/01/18 10:18:15;;;;;;;12.33;2.10;;;;;;;17.61;50.79;93370.31;4993132;28;20490;-78
2023/01/18 10:20:47;;;;;;;6.73;1.93;;;;;;;17.57;50.39;93357.69;4993623;28;20537;-79
2023/01/18 10:23:20;;;;;;;8.60;3.20;;;;;;;17.58;50.59;93356.66;4992784;28;20463;-79
2023/01/18 10:25:54;;;;;;;9.27;1.90;;;;;;;17.61;50.34;93354.38;4992914;28;20470;-79
2023/01/18 10:28:32;;;;;;;3.67;1.73;;;;;;;17.62;49.80;93357.84;4993027;28;20458;-79
2023/01/18 10:31:14;;;;;;;11.73;2.20;;;;;;;17.52;50.34;93381.38;4992980;28;20451;-79
2023/01/18 10:33:44;;;;;;;10.47;2.23;;;;;;;17.51;50.76;93363.81;4977999;28;20475;-79
2023/01/18 10:36:15;;;;;;;6.17;2.30;;;;;;;17.57;50.29;93365.63;4992706;28;20507;-79
2023/01/18 10:38:43;;;;;;;9.10;3.17;;;;;;;17.59;50.42;93363.59;4976866;28;20643;-79
2023/01/18 10:41:18;;;;;;;5.23;2.53;;;;;;;17.64;50.65;93395.63;4992713;28;20449;-78
2023/01/18 10:43:45;;;;;;;8.70;2.83;;;;;;;17.67;50.19;93407.66;4992852;28;20510;-78
2023/01/18 10:46:13;;;;;;;7.60;2.17;;;;;;;17.67;50.56;93423.56;4992723;28;20444;-78
2023/01/18 10:48:45;;;;;;;6.57;2.40;;;;;;;17.67;50.58;93434.19;4992587;28;20876;-80
2023/01/18 10:51:24;;;;;;;5.77;1.93;;;;;;;17.64;49.77;93440.72;4992705;28;20563;-80
2023/01/18 10:53:51;;;;;;;6.10;3.30;;;;;;;17.63;49.68;93444.38;5060104;28;20530;-77
2023/01/18 10:56:21;;;;;;;3.73;2.30;;;;;;;17.66;50.34;93438.69;5073589;28;20503;-79
2023/01/18 10:58:54;;;;;;;14.33;2.07;;;;;;;17.66;49.95;93457.25;5073195;28;20493;-78
2023/01/18 11:01:23;;;;;;;9.30;3.10;;;;;;;17.71;49.73;93459.31;5073627;28;21004;-78
2023/01/18 11:03:53;;;;;;;5.20;2.40;;;;;;;17.76;49.71;93470.91;5074030;28;20451;-78
2023/01/18 11:06:21;;;;;;;6.27;1.90;;;;;;;17.73;49.24;93458.06;5073413;28;20947;-80
2023/01/18 11:08:49;;;;;;;4.83;2.07;;;;;;;17.80;50.19;93460.69;5073901;28;20444;-78
2023/01/18 11:11:19;;;;;;;5.73;2.37;;;;;;;17.78;50.14;93441.50;5073746;28;20456;-78
2023/01/18 11:13:48;;;;;;;4.60;2.70;;;;;;;17.74;49.82;93417.25;5073348;28;20923;-80
2023/01/18 11:16:17;;;;;;;5.90;2.30;;;;;;;17.67;49.75;93437.69;5073482;28;20445;-79
2023/01/18 11:19:00;;;;;;;4.80;2.17;;;;;;;17.57;49.67;93439.91;5073361;28;20480;-78
2023/01/18 11:21:30;;;;;;;8.20;2.60;;;;;;;17.50;49.80;93424.00;5073705;28;20451;-79
2023/01/18 11:23:58;;;;;;;10.23;2.67;;;;;;;17.48;49.89;93426.06;5073530;28;20454;-78
2023/01/18 11:26:27;;;;;;;9.73;2.23;;;;;;;17.52;50.34;93411.34;5073831;28;20460;-78
2023/01/18 11:28:58;;;;;;;6.83;2.57;;;;;;;17.57;50.19;93400.13;5073430;28;20442;-78
2023/01/18 11:31:27;;;;;;;3.87;2.10;;;;;;;17.63;49.68;93412.53;5074590;28;20547;-77
2023/01/18 11:33:57;;;;;;;8.03;2.50;;;;;;;17.66;49.67;93428.06;5073674;28;20993;-79
2023/01/18 11:36:37;;;;;;;4.30;1.93;;;;;;;17.69;49.54;93442.78;5073663;28;20467;-79
2023/01/18 11:39:27;;;;;;;6.03;2.00;;;;;;;17.73;49.61;93433.38;5073491;28;20441;-78
2023/01/18 11:42:16;;;;;;;8.20;2.50;;;;;;;17.77;49.55;93446.00;5073057;28;20540;-78
2023/01/18 11:44:48;;;;;;;5.40;2.70;;;;;;;17.81;49.13;93436.59;5073256;28;20463;-79
2023/01/18 11:47:21;;;;;;;12.90;2.63;;;;;;;17.73;49.44;93449.28;5073256;28;20496;-78
2023/01/18 11:49:58;;;;;;;6.03;1.83;;;;;;;17.68;49.33;93465.03;5072931;28;20484;-78
2023/01/18 11:52:42;;;;;;;14.30;3.00;;;;;;;17.67;49.09;93461.56;5021345;28;20827;-78
2023/01/18 11:55:22;;;;;;;21.97;2.53;;;;;;;17.75;49.37;93469.28;5072770;28;20888;-79
2023/01/18 11:57:49;;;;;;;6.60;2.30;;;;;;;17.81;48.95;93454.38;5072714;28;20538;-79
2023/01/18 12:00:17;;;;;;;4.67;2.47;;;;;;;17.82;48.73;93466.59;5021383;28;20461;-80
2023/01/18 12:03:19;;;;;;;7.60;2.40;;;;;;;17.85;48.58;93472.31;5020986;28;20463;-78
2023/01/18 12:05:51;;;;;;;4.80;2.20;;;;;;;17.92;48.39;93473.09;4900654;28;20455;-77
2023/01/18 12:08:46;;;;;;;6.07;3.33;;;;;;;17.86;47.47;93465.16;4973334;28;20498;-78
2023/01/18 12:11:46;;;;;;;7.77;3.03;;;;;;;17.94;48.32;93473.72;4971611;28;20454;-79
2023/01/18 12:14:26;;;;;;;6.90;2.37;;;;;;;18.05;48.41;93498.78;4914260;29;20963;-80
2023/01/18 12:17:09;;;;;;;5.43;2.23;;;;;;;18.15;47.80;93499.16;4914309;29;20454;-80
2023/01/18 12:19:49;;;;;;;10.23;2.70;;;;;;;18.16;47.12;93487.50;4914308;29;20496;-80
2023/01/18 12:22:45;;;;;;;9.87;2.43;;;;;;;18.25;47.21;93509.34;4914452;29;20464;-79
2023/01/18 12:25:28;;;;;;;9.20;2.80;;;;;;;18.26;47.40;93516.28;4869210;29;20487;-80
2023/01/18 12:28:06;;;;;;;18.70;2.80;;;;;;;18.30;47.61;93514.03;4876813;29;20977;-79
2023/01/18 12:30:43;;;;;;;8.00;2.40;;;;;;;18.35;47.25;93507.03;4876689;29;20456;-79
2023/01/18 12:33:21;;;;;;;6.83;2.70;;;;;;;18.34;46.80;93529.31;4877018;29;20453;-79
2023/01/18 12:36:12;;;;;;;12.83;2.50;;;;;;;18.24;46.50;93515.69;4845718;29;20460;-79
2023/01/18 12:38:44;;;;;;;8.70;2.63;;;;;;;18.27;47.25;93510.75;4876836;29;20502;-79